createdAt,value
2023-05-25T00:00:03.412Z,22.75
2023-05-25T00:05:12.342Z,20.48
2023-05-25T00:10:17.942Z,21.55
2023-05-25T00:15:23.360Z,19.45
2023-05-25T00:20:30.049Z,19.65
2023-05-25T00:25:35.689Z,16.92
2023-05-25T00:30:40.896Z,18.63
2023-05-25T00:35:46.801Z,18.55
2023-05-25T00:40:58.955Z,19.05
2023-05-25T00:46:05.676Z,20.45
2023-05-25T00:51:12.899Z,21.73
2023-05-25T00:56:24.727Z,22.58
2023-05-25T01:01:35.938Z,23.77
2023-05-25T01:06:45.130Z,19.13
2023-05-25T01:11:53.385Z,16.25
2023-05-25T01:17:00.410Z,19.25
2023-05-25T01:22:34.068Z,18.15
2023-05-25T01:28:24.288Z,18.65
2023-05-25T01:33:32.545Z,15.90
2023-05-25T01:38:40.014Z,17.05
2023-05-25T01:43:45.786Z,15.23
2023-05-25T01:49:05.578Z,16.65
2023-05-25T01:54:21.188Z,19.63
2023-05-25T01:59:28.509Z,17.52
2023-05-25T02:04:38.853Z,16.92
2023-05-25T02:09:44.792Z,16.98
2023-05-25T02:15:16.486Z,19.30
2023-05-25T02:20:27.344Z,16.30
2023-05-25T02:25:32.628Z,16.70
2023-05-25T02:30:38.067Z,18.52
2023-05-25T02:35:44.057Z,15.50
2023-05-25T02:40:52.933Z,18.58
2023-05-25T02:45:59.863Z,19.95
2023-05-25T02:51:05.258Z,15.48
2023-05-25T03:01:20.241Z,16.10
2023-05-25T03:06:30.907Z,15.32
2023-05-25T03:11:42.579Z,16.35
2023-05-25T03:16:54.108Z,18.17
2023-05-25T03:22:02.150Z,18.75
2023-05-25T03:27:09.505Z,17.67
2023-05-25T03:32:15.149Z,16.13
2023-05-25T03:37:21.136Z,14.68
2023-05-25T03:42:27.088Z,15.80
2023-05-25T03:47:34.733Z,14.52
2023-05-25T03:52:40.426Z,16.85
2023-05-25T04:02:55.031Z,16.55
2023-05-25T04:08:00.851Z,13.98
2023-05-25T04:18:15.061Z,14.18
2023-05-25T04:23:24.930Z,15.05
2023-05-25T04:28:32.237Z,15.32
2023-05-25T04:33:51.768Z,16.85
2023-05-25T04:39:05.410Z,15.35
2023-05-25T04:44:17.942Z,10.20
2023-05-25T04:49:26.604Z,17.77
2023-05-25T04:54:34.884Z,17.33
2023-05-25T04:59:46.804Z,16.75
2023-05-25T05:04:55.481Z,11.80
2023-05-25T05:10:01.735Z,19.63
2023-05-25T05:15:09.578Z,22.20
2023-05-25T05:20:17.215Z,17.52
2023-05-25T05:25:23.889Z,10.48
2023-05-25T05:30:29.373Z,20.02
2023-05-25T05:35:34.921Z,18.52
2023-05-25T05:40:48.123Z,20.33
2023-05-25T05:45:58.520Z,18.33
2023-05-25T05:51:04.287Z,21.25
2023-05-25T05:56:19.871Z,22.80
2023-05-25T06:01:26.938Z,21.63
2023-05-25T06:06:34.658Z,20.67
2023-05-25T06:11:41.579Z,20.77
2023-05-25T06:16:48.007Z,18.42
2023-05-25T06:21:53.942Z,21.52
2023-05-25T06:26:59.819Z,22.27
2023-05-25T06:32:08.219Z,25.48
2023-05-25T06:37:17.194Z,22.00
2023-05-25T06:42:26.169Z,19.13
2023-05-25T06:47:34.577Z,26.35
2023-05-25T06:52:43.572Z,19.65
2023-05-25T06:57:50.431Z,21.50
2023-05-25T07:02:58.811Z,22.83
2023-05-25T07:08:04.045Z,23.63
2023-05-25T07:18:15.916Z,21.67
2023-05-25T07:23:21.476Z,23.75
2023-05-25T07:28:32.740Z,19.63
2023-05-25T07:33:40.780Z,22.00
2023-05-25T07:38:46.362Z,19.25
2023-05-25T07:43:53.835Z,19.33
2023-05-25T07:49:04.833Z,21.02
2023-05-25T07:54:26.077Z,21.02
2023-05-25T07:59:31.509Z,20.73
2023-05-25T08:04:46.208Z,20.98
2023-05-25T08:09:57.244Z,18.90
2023-05-25T08:15:02.806Z,19.77
2023-05-25T08:20:14.896Z,19.23
2023-05-25T08:25:21.742Z,19.67
2023-05-25T08:30:27.344Z,19.50
2023-05-25T08:41:22.517Z,19.25
2023-05-25T08:46:34.822Z,22.50
2023-05-25T08:51:43.780Z,19.33
2023-05-25T08:56:59.594Z,18.63
2023-05-25T09:02:31.130Z,16.02
2023-05-25T09:07:40.109Z,17.23
2023-05-25T09:12:46.314Z,16.65
2023-05-25T09:17:52.280Z,17.75
2023-05-25T09:22:57.821Z,18.63
2023-05-25T09:28:24.169Z,16.88
2023-05-25T09:34:02.150Z,18.88
2023-05-25T09:39:07.596Z,18.95
2023-05-25T09:44:13.430Z,17.02
2023-05-25T09:49:18.922Z,17.40
2023-05-25T09:54:24.919Z,17.60
2023-05-25T09:59:33.233Z,19.42
2023-05-25T10:04:38.764Z,17.02
2023-05-25T10:14:56.406Z,17.10
2023-05-25T10:20:13.233Z,17.27
2023-05-25T10:31:16.360Z,17.42
2023-05-25T10:36:24.358Z,14.40
2023-05-25T10:41:29.978Z,15.80
2023-05-25T10:46:35.337Z,16.15
2023-05-25T10:51:59.205Z,16.90
2023-05-25T10:57:12.488Z,15.93
2023-05-25T11:02:18.410Z,16.63
2023-05-25T11:07:24.868Z,16.55
2023-05-25T11:12:30.882Z,16.48
2023-05-25T11:17:45.918Z,16.83
2023-05-25T11:22:54.402Z,14.17
2023-05-25T11:28:07.641Z,13.75
2023-05-25T11:33:14.969Z,13.10
2023-05-25T11:38:27.550Z,16.20
2023-05-25T11:43:39.233Z,14.50
2023-05-25T11:49:03.174Z,15.65
2023-05-25T11:54:08.984Z,15.00
2023-05-25T11:59:17.036Z,16.70
2023-05-25T12:04:24.420Z,18.50
2023-05-25T12:09:32.918Z,15.88
2023-05-25T12:14:54.400Z,15.98
2023-05-25T12:19:59.999Z,16.48
2023-05-25T12:25:11.842Z,14.30
2023-05-25T12:30:20.904Z,16.77
2023-05-25T12:35:33.740Z,13.65
2023-05-25T12:40:45.806Z,14.52
2023-05-25T12:45:51.529Z,14.75
2023-05-25T12:51:06.295Z,14.00
2023-05-25T12:56:17.438Z,14.45
2023-05-25T13:01:23.675Z,15.07
2023-05-25T13:06:29.411Z,14.82
2023-05-25T13:11:34.850Z,15.98
2023-05-25T13:16:41.973Z,15.40
2023-05-25T13:21:50.597Z,7.32
2023-05-25T13:26:59.218Z,11.73
2023-05-25T13:32:04.707Z,11.02
2023-05-25T13:37:16.908Z,4.18
2023-05-25T13:42:23.121Z,6.90
2023-05-25T13:47:28.654Z,6.07
2023-05-25T13:52:37.133Z,3.40
2023-05-25T13:57:45.675Z,3.70
2023-05-25T14:02:53.590Z,1.30
2023-05-25T14:07:59.836Z,1.30
2023-05-25T14:13:05.414Z,2.08
2023-05-25T14:18:11.056Z,2.15
2023-05-25T14:23:18.462Z,1.60
2023-05-25T14:28:40.150Z,2.22
2023-05-25T14:33:46.235Z,2.47
2023-05-25T14:38:53.090Z,2.65
2023-05-25T14:43:59.305Z,2.67
2023-05-25T14:49:04.513Z,2.40
2023-05-25T14:54:10.351Z,2.50
2023-05-25T14:59:18.535Z,2.70
2023-05-25T15:04:24.098Z,3.10
2023-05-25T15:09:29.769Z,2.90
2023-05-25T15:14:41.404Z,3.03
2023-05-25T15:19:47.355Z,3.10
2023-05-25T15:24:52.974Z,4.10
2023-05-25T15:29:58.749Z,4.07
2023-05-25T15:35:07.624Z,4.03
2023-05-25T15:40:14.224Z,4.32
2023-05-25T15:45:19.676Z,4.45
2023-05-25T15:50:25.226Z,4.28
2023-05-25T16:00:42.637Z,5.05
2023-05-25T16:06:11.842Z,4.60
2023-05-25T16:11:26.103Z,5.00
2023-05-25T16:16:33.003Z,5.00
2023-05-25T16:21:45.855Z,5.78
2023-05-25T16:26:51.552Z,4.93
2023-05-25T16:31:57.191Z,4.85
2023-05-25T16:37:05.378Z,5.70
2023-05-25T16:42:11.700Z,6.30
2023-05-25T16:47:31.711Z,7.95
2023-05-25T16:52:37.601Z,7.65
2023-05-25T16:57:45.275Z,7.68
2023-05-25T17:02:52.392Z,7.32
2023-05-25T17:08:03.941Z,6.47
2023-05-25T17:13:09.158Z,5.68
2023-05-25T17:18:15.034Z,5.60
2023-05-25T17:23:24.060Z,5.38
2023-05-25T17:28:30.563Z,5.20
2023-05-25T17:33:36.216Z,4.30
2023-05-25T17:43:48.779Z,5.60
2023-05-25T17:48:56.933Z,5.72
2023-05-25T17:54:04.032Z,5.90
2023-05-25T17:59:11.364Z,4.53
2023-05-25T18:04:23.971Z,6.03
2023-05-25T18:09:29.742Z,5.15
2023-05-25T18:14:38.860Z,5.38
2023-05-25T18:19:44.246Z,5.60
2023-05-25T18:24:49.773Z,5.68
2023-05-25T18:35:03.724Z,4.75
2023-05-25T18:40:09.775Z,5.40
2023-05-25T18:45:15.340Z,6.03
2023-05-25T18:50:21.300Z,6.03
2023-05-25T18:55:26.910Z,6.10
2023-05-25T19:05:37.619Z,6.30
2023-05-25T19:10:43.152Z,6.35
2023-05-25T19:15:49.595Z,6.25
2023-05-25T19:20:54.765Z,6.47
2023-05-25T19:26:01.801Z,7.30
2023-05-25T19:31:07.064Z,7.55
2023-05-25T19:36:13.059Z,8.18
2023-05-25T19:41:20.787Z,7.28
2023-05-25T19:46:27.807Z,7.05
2023-05-25T19:51:34.750Z,8.32
2023-05-25T19:56:41.008Z,9.27
2023-05-25T20:01:47.746Z,9.30
2023-05-25T20:11:59.730Z,9.75
2023-05-25T20:17:05.868Z,8.98
2023-05-25T20:22:10.977Z,10.20
2023-05-25T20:27:16.768Z,9.95
2023-05-25T20:32:22.767Z,11.18
2023-05-25T20:37:28.040Z,11.52
2023-05-25T20:47:42.382Z,9.35
2023-05-25T20:52:48.166Z,10.68
2023-05-25T20:57:53.896Z,9.73
2023-05-25T21:03:00.299Z,9.95
2023-05-25T21:08:05.879Z,9.88
2023-05-25T21:13:11.285Z,9.95
2023-05-25T21:18:18.996Z,9.60
2023-05-25T21:23:24.118Z,9.48
2023-05-25T21:28:29.590Z,9.60
2023-05-25T21:33:39.716Z,10.02
2023-05-25T21:38:45.100Z,10.30
2023-05-25T21:43:50.670Z,9.82
2023-05-25T21:48:56.216Z,9.65
2023-05-25T21:54:02.527Z,11.57
2023-05-25T21:59:17.749Z,11.95
2023-05-25T22:04:23.194Z,14.15
2023-05-25T22:09:30.719Z,14.10
2023-05-25T22:14:41.416Z,14.85
2023-05-25T22:19:59.075Z,14.20
2023-05-25T22:25:04.687Z,16.40
2023-05-25T22:30:10.812Z,16.77
2023-05-25T22:35:16.073Z,17.60
2023-05-25T22:40:21.507Z,17.25
2023-05-25T22:45:27.096Z,17.95
2023-05-25T22:50:32.393Z,17.95
2023-05-25T22:55:37.560Z,17.90
2023-05-25T23:00:43.167Z,18.58
2023-05-25T23:05:49.275Z,16.88
2023-05-25T23:10:54.858Z,16.02
2023-05-25T23:16:03.509Z,17.73
2023-05-25T23:21:08.736Z,18.05
2023-05-25T23:26:14.318Z,16.65
2023-05-25T23:31:23.095Z,15.63
2023-05-25T23:36:29.764Z,14.40
2023-05-25T23:41:35.165Z,16.02
2023-05-25T23:51:46.267Z,18.80
2023-05-25T23:56:51.801Z,20.55
